createdAt,value
2023-04-02T00:00:12.069Z,9.203759
2023-04-02T00:01:12.009Z,9.203822
2023-04-02T00:02:12.050Z,9.203659
2023-04-02T00:03:12.032Z,9.203688
2023-04-02T00:04:12.150Z,9.203561
2023-04-02T00:05:11.991Z,9.203691
2023-04-02T00:06:12.004Z,9.203644
2023-04-02T00:07:11.981Z,9.203623
2023-04-02T00:08:12.004Z,9.203700
2023-04-02T00:09:11.973Z,9.203667
2023-04-02T00:10:11.957Z,9.203732
2023-04-02T00:11:11.989Z,9.203587
2023-04-02T00:12:11.937Z,9.203452
2023-04-02T00:13:11.951Z,9.203611
2023-04-02T00:14:11.916Z,9.203721
2023-04-02T00:15:11.915Z,9.203595
2023-04-02T00:16:12.040Z,9.203673
2023-04-02T00:17:11.926Z,9.203750
2023-04-02T00:18:11.904Z,9.203612
2023-04-02T00:19:11.899Z,9.203596
2023-04-02T00:20:11.935Z,9.203458
2023-04-02T00:21:11.941Z,9.203572
2023-04-02T00:22:11.912Z,9.203629
2023-04-02T00:23:11.883Z,9.203833
2023-04-02T00:24:11.892Z,9.203685
2023-04-02T00:25:11.869Z,9.203697
2023-04-02T00:26:11.874Z,9.203690
2023-04-02T00:27:11.863Z,9.203854
2023-04-02T00:28:11.849Z,9.203572
2023-04-02T00:29:11.855Z,9.203597
2023-04-02T00:30:11.838Z,9.203667
2023-04-02T00:31:11.853Z,9.203675
2023-04-02T00:32:11.944Z,9.203545
2023-04-02T00:33:11.869Z,9.203731
2023-04-02T00:34:11.815Z,9.203634
2023-04-02T00:35:11.808Z,9.203736
2023-04-02T00:36:11.840Z,9.203765
2023-04-02T00:37:11.852Z,9.203975
2023-04-02T00:38:11.798Z,9.203528
2023-04-02T00:39:11.797Z,9.203577
2023-04-02T00:40:11.777Z,9.203689
2023-04-02T00:41:11.791Z,9.203553
2023-04-02T00:42:11.803Z,9.203744
2023-04-02T00:43:11.764Z,9.203678
2023-04-02T00:44:11.796Z,9.203615
2023-04-02T00:45:11.777Z,9.203537
2023-04-02T00:46:11.781Z,9.203544
2023-04-02T00:47:11.757Z,9.203454
2023-04-02T00:48:11.768Z,9.203601
2023-04-02T00:49:11.744Z,9.203653
2023-04-02T00:50:11.785Z,9.203902
2023-04-02T00:51:11.819Z,9.203676
2023-04-02T00:52:11.748Z,9.203655
2023-04-02T00:53:11.778Z,9.203603
2023-04-02T00:54:11.733Z,9.203619
2023-04-02T00:55:11.727Z,9.203714
2023-04-02T00:56:11.730Z,9.203445
2023-04-02T00:57:11.751Z,9.203541
2023-04-02T00:58:11.723Z,9.203785
2023-04-02T00:59:11.699Z,9.203676
2023-04-02T01:00:11.726Z,9.203535
2023-04-02T01:01:11.790Z,9.203513
2023-04-02T01:02:11.714Z,9.203587
2023-04-02T01:03:11.795Z,9.203830
2023-04-02T01:04:11.708Z,9.203595
2023-04-02T01:05:11.702Z,9.203913
2023-04-02T01:06:11.696Z,9.203772
2023-04-02T01:07:11.683Z,9.203530
2023-04-02T01:08:11.678Z,9.203988
2023-04-02T01:09:11.700Z,9.203938
2023-04-02T01:10:11.640Z,9.203291
2023-04-02T01:11:11.636Z,9.203844
2023-04-02T01:12:11.648Z,9.203866
2023-04-02T01:13:11.628Z,9.203905
2023-04-02T01:14:11.675Z,9.203662
2023-04-02T01:15:11.645Z,9.203402
2023-04-02T01:16:11.699Z,9.203617
2023-04-02T01:17:11.616Z,9.203918
2023-04-02T01:18:11.599Z,9.203991
2023-04-02T01:19:11.652Z,9.203796
2023-04-02T01:20:11.594Z,9.203478
2023-04-02T01:21:11.608Z,9.203614
2023-04-02T01:22:11.589Z,9.203452
2023-04-02T01:23:11.579Z,9.203534
2023-04-02T01:24:11.604Z,9.203696
2023-04-02T01:25:11.647Z,9.203696
2023-04-02T01:26:12.314Z,9.203290
2023-04-02T01:27:11.585Z,9.203500
2023-04-02T01:28:11.568Z,9.203697
2023-04-02T01:29:11.565Z,9.203747
2023-04-02T01:30:11.582Z,9.203779
2023-04-02T01:31:11.589Z,9.203423
2023-04-02T01:32:11.577Z,9.203559
2023-04-02T01:33:11.539Z,9.203683
2023-04-02T01:34:11.578Z,9.203656
2023-04-02T01:35:11.546Z,9.203570
2023-04-02T01:36:11.595Z,9.203478
2023-04-02T01:37:11.962Z,9.203478
2023-04-02T01:38:11.538Z,9.203421
2023-04-02T01:39:11.560Z,9.203539
2023-04-02T01:40:11.525Z,9.203493
2023-04-02T01:41:11.497Z,9.203475
2023-04-02T01:42:11.525Z,9.203538
2023-04-02T01:43:11.502Z,9.203730
2023-04-02T01:44:11.501Z,9.203487
2023-04-02T01:45:11.492Z,9.203478
2023-04-02T01:46:11.532Z,9.203677
2023-04-02T01:47:11.481Z,9.203640
2023-04-02T01:48:11.481Z,9.203786
2023-04-02T01:49:11.451Z,9.203719
2023-04-02T01:50:11.531Z,9.203845
2023-04-02T01:51:12.074Z,9.203794
2023-04-02T01:52:11.450Z,9.203611
2023-04-02T01:53:11.467Z,9.203703
2023-04-02T01:54:11.483Z,9.203929
2023-04-02T01:55:11.428Z,9.203820
2023-04-02T01:56:11.480Z,9.203754
2023-04-02T01:57:11.477Z,9.203814
2023-04-02T01:58:11.486Z,9.203762
2023-04-02T01:59:11.439Z,9.203729
2023-04-02T02:00:11.423Z,9.203728
2023-04-02T02:01:11.477Z,9.203895
2023-04-02T02:02:11.448Z,9.203973
2023-04-02T02:03:11.394Z,9.203831
2023-04-02T02:04:11.417Z,9.203998
2023-04-02T02:05:11.394Z,9.204054
2023-04-02T02:06:11.400Z,9.203751
2023-04-02T02:07:11.380Z,9.203702
2023-04-02T02:08:11.383Z,9.203843
2023-04-02T02:09:11.368Z,9.204075
2023-04-02T02:10:11.382Z,9.204012
2023-04-02T02:11:11.361Z,9.203990
2023-04-02T02:12:11.346Z,9.204030
2023-04-02T02:13:11.349Z,9.203734
2023-04-02T02:14:11.384Z,9.204006
2023-04-02T02:15:11.363Z,9.203834
2023-04-02T02:16:11.347Z,9.203750
2023-04-02T02:17:11.322Z,9.203722
2023-04-02T02:18:11.355Z,9.203869
2023-04-02T02:19:12.342Z,9.203848
2023-04-02T02:20:11.365Z,9.203882
2023-04-02T02:21:12.330Z,9.203791
2023-04-02T02:22:11.307Z,9.203810
2023-04-02T02:23:11.322Z,9.203858
2023-04-02T02:24:11.307Z,9.203661
2023-04-02T02:25:11.319Z,9.203691
2023-04-02T02:26:11.283Z,9.203748
2023-04-02T02:27:11.292Z,9.203671
2023-04-02T02:28:11.270Z,9.203713
2023-04-02T02:29:11.265Z,9.203803
2023-04-02T02:30:11.329Z,9.203822
2023-04-02T02:31:11.295Z,9.203712
2023-04-02T02:32:11.335Z,9.203577
2023-04-02T02:33:11.274Z,9.203667
2023-04-02T02:34:11.246Z,9.203760
2023-04-02T02:35:11.276Z,9.203621
2023-04-02T02:36:11.283Z,9.203562
2023-04-02T02:37:11.255Z,9.203859
2023-04-02T02:38:11.234Z,9.203974
2023-04-02T02:39:11.214Z,9.203861
2023-04-02T02:40:11.212Z,9.203827
2023-04-02T02:41:11.245Z,9.203868
2023-04-02T02:42:11.200Z,9.203969
2023-04-02T02:43:11.213Z,9.203837
2023-04-02T02:44:11.199Z,9.203883
2023-04-02T02:45:11.204Z,9.204005
2023-04-02T02:46:11.266Z,9.203979
2023-04-02T02:47:11.181Z,9.204088
2023-04-02T02:48:11.170Z,9.203955
2023-04-02T02:49:11.151Z,9.203934
2023-04-02T02:50:11.174Z,9.203715
2023-04-02T02:51:11.527Z,9.203767
2023-04-02T02:52:11.216Z,9.203981
2023-04-02T02:53:11.168Z,9.203635
2023-04-02T02:54:11.175Z,9.203636
2023-04-02T02:55:11.177Z,9.203959
2023-04-02T02:56:11.138Z,9.204427
2023-04-02T02:57:11.216Z,9.204504
2023-04-02T02:58:11.168Z,9.204497
2023-04-02T02:59:11.135Z,9.204186
2023-04-02T03:00:11.113Z,9.204182
2023-04-02T03:01:11.123Z,9.203377
2023-04-02T03:02:11.163Z,9.203823
2023-04-02T03:03:11.256Z,9.204122
2023-04-02T03:04:11.153Z,9.203650
2023-04-02T03:05:11.097Z,9.203818
2023-04-02T03:06:11.091Z,9.203724
2023-04-02T03:07:11.143Z,9.204183
2023-04-02T03:08:11.124Z,9.204925
2023-04-02T03:09:11.081Z,9.204589
2023-04-02T03:10:11.080Z,9.204414
2023-04-02T03:11:11.094Z,9.203830
2023-04-02T03:12:11.061Z,9.203995
2023-04-02T03:13:11.068Z,9.203271
2023-04-02T03:14:11.037Z,9.204073
2023-04-02T03:15:11.052Z,9.204496
2023-04-02T03:16:11.044Z,9.203940
2023-04-02T03:17:11.080Z,9.203025
2023-04-02T03:18:11.063Z,9.203878
2023-04-02T03:19:11.008Z,9.203820
2023-04-02T03:20:11.018Z,9.203714
2023-04-02T03:21:11.039Z,9.204061
2023-04-02T03:22:11.005Z,9.203257
2023-04-02T03:23:11.021Z,9.203703
2023-04-02T03:24:11.024Z,9.204074
2023-04-02T03:25:10.981Z,9.204221
2023-04-02T03:26:10.991Z,9.203442
2023-04-02T03:27:10.984Z,9.203391
2023-04-02T03:28:11.023Z,9.203305
2023-04-02T03:29:10.979Z,9.203741
2023-04-02T03:30:11.004Z,9.204300
2023-04-02T03:31:10.963Z,9.204368
2023-04-02T03:32:10.971Z,9.203842
2023-04-02T03:33:10.948Z,9.203859
2023-04-02T03:34:10.973Z,9.203676
2023-04-02T03:35:10.966Z,9.203631
2023-04-02T03:36:10.950Z,9.203246
2023-04-02T03:37:10.954Z,9.203756
2023-04-02T03:38:10.926Z,9.203989
2023-04-02T03:39:10.942Z,9.204169
2023-04-02T03:40:10.957Z,9.203340
2023-04-02T03:41:10.917Z,9.203704
2023-04-02T03:42:10.893Z,9.203702
2023-04-02T03:43:10.911Z,9.203677
2023-04-02T03:44:10.917Z,9.203773
2023-04-02T03:45:10.880Z,9.203279
2023-04-02T03:46:10.963Z,9.203965
2023-04-02T03:47:10.880Z,9.203608
2023-04-02T03:48:10.867Z,9.203375
2023-04-02T03:49:10.897Z,9.204092
2023-04-02T03:50:10.889Z,9.204296
2023-04-02T03:51:10.864Z,9.204049
2023-04-02T03:52:10.970Z,9.203771
2023-04-02T03:53:10.840Z,9.204044
2023-04-02T03:54:10.855Z,9.203978
2023-04-02T03:55:10.888Z,9.204901
2023-04-02T03:56:10.847Z,9.204796
2023-04-02T03:57:10.858Z,9.204226
2023-04-02T03:58:10.812Z,9.203455
2023-04-02T03:59:10.825Z,9.203168
2023-04-02T04:00:10.812Z,9.203040
2023-04-02T04:01:10.851Z,9.203214
2023-04-02T04:02:10.779Z,9.203267
2023-04-02T04:03:10.833Z,9.203587
2023-04-02T04:04:10.872Z,9.203721
2023-04-02T04:05:10.770Z,9.203782
2023-04-02T04:06:10.804Z,9.203794
2023-04-02T04:07:10.802Z,9.203901
2023-04-02T04:08:10.767Z,9.204070
2023-04-02T04:09:10.773Z,9.203840
2023-04-02T04:10:10.744Z,9.203170
2023-04-02T04:11:10.809Z,9.203364
2023-04-02T04:12:10.775Z,9.204151
2023-04-02T04:13:10.730Z,9.203416
2023-04-02T04:14:10.716Z,9.203406
2023-04-02T04:15:10.716Z,9.203036
2023-04-02T04:16:10.738Z,9.203541
2023-04-02T04:17:10.754Z,9.203751
2023-04-02T04:18:10.696Z,9.203911
2023-04-02T04:19:11.207Z,9.204024
2023-04-02T04:20:10.689Z,9.204082
2023-04-02T04:21:10.690Z,9.204036
2023-04-02T04:22:10.727Z,9.204013
2023-04-02T04:23:10.683Z,9.203711
2023-04-02T04:24:10.698Z,9.203652
2023-04-02T04:25:10.697Z,9.203656
2023-04-02T04:26:10.658Z,9.203599
2023-04-02T04:27:10.681Z,9.203648
2023-04-02T04:28:10.702Z,9.203670
2023-04-02T04:29:10.683Z,9.203672
2023-04-02T04:30:10.643Z,9.203875
2023-04-02T04:31:10.650Z,9.203706
2023-04-02T04:32:10.701Z,9.203614
2023-04-02T04:33:10.663Z,9.203518
2023-04-02T04:34:10.642Z,9.203554
2023-04-02T04:35:10.623Z,9.203542
2023-04-02T04:36:10.624Z,9.203479
2023-04-02T04:37:10.610Z,9.203750
2023-04-02T04:38:10.626Z,9.203744
2023-04-02T04:39:10.616Z,9.203764
2023-04-02T04:40:10.597Z,9.203554
2023-04-02T04:41:10.644Z,9.203673
2023-04-02T04:42:10.577Z,9.203714
2023-04-02T04:43:10.610Z,9.203580
2023-04-02T04:44:10.555Z,9.203506
2023-04-02T04:45:10.579Z,9.203490
2023-04-02T04:46:10.608Z,9.203769
2023-04-02T04:47:10.552Z,9.203781
2023-04-02T04:48:10.572Z,9.203676
2023-04-02T04:49:10.546Z,9.203668
2023-04-02T04:50:10.548Z,9.203658
2023-04-02T04:51:10.544Z,9.203986
2023-04-02T04:52:10.527Z,9.203664
2023-04-02T04:53:10.497Z,9.203576
2023-04-02T04:54:10.526Z,9.203576
2023-04-02T04:55:10.518Z,9.203599
2023-04-02T04:56:18.838Z,9.203588
2023-04-02T04:57:12.501Z,9.203640
2023-04-02T04:58:10.504Z,9.203830
2023-04-02T04:59:10.513Z,9.203719
2023-04-02T05:00:10.462Z,9.203584
2023-04-02T05:01:10.528Z,9.203690
2023-04-02T05:02:10.481Z,9.204064
2023-04-02T05:03:10.477Z,9.204092
2023-04-02T05:04:10.482Z,9.203792
2023-04-02T05:05:10.449Z,9.203838
2023-04-02T05:06:10.460Z,9.203527
2023-04-02T05:07:10.481Z,9.203673
2023-04-02T05:08:10.419Z,9.203687
2023-04-02T05:09:10.499Z,9.203630
2023-04-02T05:10:10.436Z,9.203691
2023-04-02T05:11:10.397Z,9.203609
2023-04-02T05:12:10.430Z,9.203465
2023-04-02T05:13:10.426Z,9.203581
2023-04-02T05:14:10.406Z,9.203590
2023-04-02T05:15:10.517Z,9.203610
2023-04-02T05:16:10.429Z,9.203680
2023-04-02T05:17:10.404Z,9.203769
2023-04-02T05:18:10.385Z,9.203623
2023-04-02T05:19:10.356Z,9.203788
2023-04-02T05:20:10.357Z,9.203690
2023-04-02T05:21:10.382Z,9.203749
2023-04-02T05:22:10.351Z,9.203590
2023-04-02T05:23:10.359Z,9.203766
2023-04-02T05:24:10.328Z,9.203711
2023-04-02T05:25:10.360Z,9.203677
2023-04-02T05:26:10.348Z,9.203756
2023-04-02T05:27:10.308Z,9.203758
2023-04-02T05:28:10.355Z,9.203801
2023-04-02T05:29:10.321Z,9.203713
2023-04-02T05:30:10.322Z,9.203785
2023-04-02T05:31:10.365Z,9.203944
2023-04-02T05:32:10.296Z,9.203616
2023-04-02T05:33:10.351Z,9.203704
2023-04-02T05:34:10.366Z,9.203871
2023-04-02T05:35:10.309Z,9.203834
2023-04-02T05:36:10.304Z,9.203841
2023-04-02T05:37:10.283Z,9.203668
2023-04-02T05:38:10.309Z,9.203860
2023-04-02T05:39:10.290Z,9.203672
2023-04-02T05:40:10.294Z,9.203831
2023-04-02T05:41:10.279Z,9.203741
2023-04-02T05:42:10.234Z,9.203758
2023-04-02T05:43:10.264Z,9.203765
2023-04-02T05:44:10.268Z,9.203721
2023-04-02T05:45:10.234Z,9.203952
2023-04-02T05:46:10.292Z,9.203717
2023-04-02T05:47:10.215Z,9.203767
2023-04-02T05:48:10.217Z,9.203732
2023-04-02T05:49:10.232Z,9.203765
2023-04-02T05:50:10.197Z,9.203833
2023-04-02T05:51:10.195Z,9.204150
2023-04-02T05:52:10.188Z,9.203770
2023-04-02T05:53:10.185Z,9.203548
2023-04-02T05:54:10.188Z,9.203745
2023-04-02T05:55:10.226Z,9.203968
2023-04-02T05:56:10.211Z,9.203776
2023-04-02T05:57:10.199Z,9.203904
2023-04-02T05:59:11.150Z,9.203684
2023-04-02T06:00:10.158Z,9.203589
2023-04-02T06:01:10.175Z,9.203711
2023-04-02T06:02:10.169Z,9.203700
2023-04-02T06:03:10.225Z,9.203770
2023-04-02T06:04:10.268Z,9.203658
2023-04-02T06:05:10.143Z,9.203897
2023-04-02T06:06:10.161Z,9.203900
2023-04-02T06:07:10.131Z,9.203808
2023-04-02T06:08:11.127Z,9.203869
2023-04-02T06:09:10.114Z,9.203721
2023-04-02T06:10:10.112Z,9.203721
2023-04-02T06:11:10.097Z,9.203787
2023-04-02T06:12:10.102Z,9.203643
2023-04-02T06:13:10.078Z,9.203518
2023-04-02T06:14:10.081Z,9.203616
2023-04-02T06:15:10.069Z,9.204029
2023-04-02T06:16:10.132Z,9.203923
2023-04-02T06:17:10.072Z,9.203966
2023-04-02T06:18:10.092Z,9.203448
2023-04-02T06:19:10.093Z,9.203570
2023-04-02T06:20:10.034Z,9.203849
2023-04-02T06:21:10.051Z,9.203936
2023-04-02T06:22:10.030Z,9.203583
2023-04-02T06:23:10.043Z,9.203642
2023-04-02T06:24:10.008Z,9.203767
2023-04-02T06:25:10.012Z,9.204069
2023-04-02T06:26:09.993Z,9.203445
2023-04-02T06:27:09.996Z,9.203635
2023-04-02T06:28:10.017Z,9.203641
2023-04-02T06:29:10.004Z,9.203728
2023-04-02T06:30:09.974Z,9.203966
2023-04-02T06:31:10.001Z,9.204468
2023-04-02T06:32:09.959Z,9.203957
2023-04-02T06:33:09.980Z,9.203657
2023-04-02T06:34:09.961Z,9.203353
2023-04-02T06:35:09.945Z,9.203281
2023-04-02T06:36:09.955Z,9.203787
2023-04-02T06:37:09.936Z,9.203563
2023-04-02T06:38:09.967Z,9.203599
2023-04-02T06:39:09.960Z,9.203576
2023-04-02T06:40:09.903Z,9.202970
2023-04-02T06:41:09.905Z,9.203429
2023-04-02T06:42:09.903Z,9.203826
2023-04-02T06:43:09.925Z,9.204158
2023-04-02T06:44:09.931Z,9.203931
2023-04-02T06:45:09.949Z,9.204525
2023-04-02T06:46:09.930Z,9.203901
2023-04-02T06:47:09.891Z,9.203867
2023-04-02T06:48:09.941Z,9.203867
2023-04-02T06:49:09.833Z,9.204283
2023-04-02T06:50:09.876Z,9.204283
2023-04-02T06:51:09.871Z,9.204283
2023-04-02T06:52:09.835Z,9.204283
2023-04-02T06:53:09.840Z,9.204283
2023-04-02T06:54:09.816Z,9.204283
2023-04-02T06:55:09.873Z,9.204283
2023-04-02T06:56:09.830Z,9.204283
2023-04-02T06:57:09.862Z,9.204283
2023-04-02T06:58:09.822Z,9.204283
2023-04-02T06:59:09.838Z,9.204283
2023-04-02T07:00:09.819Z,9.204283
2023-04-02T07:01:09.835Z,9.204283
2023-04-02T07:02:09.791Z,9.204283
2023-04-02T07:03:09.807Z,9.204283
2023-04-02T07:04:09.773Z,9.204283
2023-04-02T07:05:09.810Z,9.204283
2023-04-02T07:06:09.779Z,9.204283
2023-04-02T07:07:09.758Z,9.204283
2023-04-02T07:08:09.765Z,9.204283
2023-04-02T07:09:09.728Z,9.204283
2023-04-02T07:10:10.745Z,9.204283
2023-04-02T07:11:09.785Z,9.204283
2023-04-02T07:12:09.723Z,9.204283
2023-04-02T07:13:09.757Z,9.204283
2023-04-02T07:14:09.778Z,9.204283
2023-04-02T07:15:09.708Z,9.204283
2023-04-02T07:16:09.769Z,9.204595
2023-04-02T07:17:09.704Z,9.204595
2023-04-02T07:18:09.715Z,9.204595
2023-04-02T07:19:09.694Z,9.204595
2023-04-02T07:20:09.692Z,9.204595
2023-04-02T07:21:09.647Z,9.204409
2023-04-02T07:22:09.657Z,9.204196
2023-04-02T07:23:09.645Z,9.204196
2023-04-02T07:24:09.662Z,9.204196
2023-04-02T07:25:09.641Z,9.204196
2023-04-02T07:26:09.628Z,9.204196
2023-04-02T07:27:09.644Z,9.204196
2023-04-02T07:28:09.640Z,9.204196
2023-04-02T07:29:09.656Z,9.204196
2023-04-02T07:30:09.604Z,9.204196
2023-04-02T07:31:09.632Z,9.203862
2023-04-02T07:32:09.606Z,9.203521
2023-04-02T07:33:09.620Z,9.203217
2023-04-02T07:34:09.613Z,9.203318
2023-04-02T07:35:09.590Z,9.203583
2023-04-02T07:36:09.600Z,9.203556
2023-04-02T07:37:09.643Z,9.203115
2023-04-02T07:38:09.554Z,9.203377
2023-04-02T07:39:09.579Z,9.203377
2023-04-02T07:40:09.557Z,9.203377
2023-04-02T07:41:09.563Z,9.203377
2023-04-02T07:42:09.564Z,9.203377
2023-04-02T07:43:09.556Z,9.203377
2023-04-02T07:44:09.591Z,9.203377
2023-04-02T07:45:09.544Z,9.203377
2023-04-02T07:46:09.565Z,9.203377
2023-04-02T07:47:09.485Z,9.203525
2023-04-02T07:48:09.581Z,9.203745
2023-04-02T07:49:09.505Z,9.203588
2023-04-02T07:50:09.481Z,9.203568
2023-04-02T07:51:09.455Z,9.203925
2023-04-02T07:52:09.470Z,9.203536
2023-04-02T07:53:09.553Z,9.204038
2023-04-02T07:54:09.509Z,9.203623
2023-04-02T07:55:09.481Z,9.203929
2023-04-02T07:56:09.476Z,9.203903
2023-04-02T07:57:09.495Z,9.203992
2023-04-02T07:58:09.421Z,9.203681
2023-04-02T07:59:09.430Z,9.203854
2023-04-02T08:00:09.406Z,9.203982
2023-04-02T08:01:09.454Z,9.203816
2023-04-02T08:02:09.444Z,9.203735
2023-04-02T08:03:09.458Z,9.203555
2023-04-02T08:04:09.412Z,9.203669
2023-04-02T08:05:09.377Z,9.203674
2023-04-02T08:06:09.392Z,9.203781
2023-04-02T08:07:09.384Z,9.203794
2023-04-02T08:08:09.363Z,9.203699
2023-04-02T08:09:09.481Z,9.203828
2023-04-02T08:10:09.409Z,9.203671
2023-04-02T08:11:09.338Z,9.203478
2023-04-02T08:12:09.365Z,9.203504
2023-04-02T08:13:09.344Z,9.204053
2023-04-02T08:14:09.324Z,9.203737
2023-04-02T08:15:09.340Z,9.203586
2023-04-02T08:16:09.384Z,9.203836
2023-04-02T08:17:09.328Z,9.203850
2023-04-02T08:18:09.350Z,9.203787
2023-04-02T08:19:09.291Z,9.204038
2023-04-02T08:20:09.298Z,9.203778
2023-04-02T08:21:09.305Z,9.204344
2023-04-02T08:22:09.310Z,9.203979
2023-04-02T08:23:09.279Z,9.204338
2023-04-02T08:24:09.268Z,9.204179
2023-04-02T08:25:09.274Z,9.204233
2023-04-02T08:26:09.286Z,9.204717
2023-04-02T08:27:10.246Z,9.204765
2023-04-02T08:28:09.251Z,9.204410
2023-04-02T08:29:09.243Z,9.204391
2023-04-02T08:30:09.237Z,9.204077
2023-04-02T08:31:09.353Z,9.204283
2023-04-02T08:32:09.222Z,9.203571
2023-04-02T08:33:09.318Z,9.203327
2023-04-02T08:34:09.234Z,9.203664
2023-04-02T08:35:09.239Z,9.203716
2023-04-02T08:36:09.232Z,9.203736
2023-04-02T08:37:09.217Z,9.204470
2023-04-02T08:38:09.190Z,9.203837
2023-04-02T08:39:09.219Z,9.203907
2023-04-02T08:40:09.181Z,9.204177
2023-04-02T08:41:09.173Z,9.203957
2023-04-02T08:42:09.190Z,9.203959
2023-04-02T08:43:09.182Z,9.203733
2023-04-02T08:44:09.175Z,9.203967
2023-04-02T08:45:23.063Z,9.203629
2023-04-02T08:46:11.151Z,9.203539
2023-04-02T08:47:09.129Z,9.203528
2023-04-02T08:48:09.189Z,9.203858
2023-04-02T08:49:09.159Z,9.203720
2023-04-02T08:50:09.092Z,9.203725
2023-04-02T08:51:09.173Z,9.203602
2023-04-02T08:52:10.095Z,9.203467
2023-04-02T08:53:09.098Z,9.203689
2023-04-02T08:54:09.088Z,9.203753
2023-04-02T08:55:09.070Z,9.203827
2023-04-02T08:56:09.059Z,9.203759
2023-04-02T08:57:09.151Z,9.203797
2023-04-02T08:58:09.181Z,9.203725
2023-04-02T08:59:09.076Z,9.203642
2023-04-02T09:00:09.054Z,9.203940
2023-04-02T09:01:09.034Z,9.203702
2023-04-02T09:02:09.045Z,9.203893
2023-04-02T09:03:09.073Z,9.203689
2023-04-02T09:04:09.047Z,9.203521
2023-04-02T09:05:09.305Z,9.203702
2023-04-02T09:06:09.004Z,9.203580
2023-04-02T09:07:08.988Z,9.203835
2023-04-02T09:08:09.000Z,9.203834
2023-04-02T09:09:08.982Z,9.203654
2023-04-02T09:10:09.011Z,9.203646
2023-04-02T09:11:08.997Z,9.203645
2023-04-02T09:12:08.957Z,9.203698
2023-04-02T09:13:08.991Z,9.203794
2023-04-02T09:14:08.932Z,9.203685
2023-04-02T09:15:08.960Z,9.203692
2023-04-02T09:16:08.966Z,9.203750
2023-04-02T09:17:08.932Z,9.203887
2023-04-02T09:18:08.949Z,9.203851
2023-04-02T09:19:08.904Z,9.203888
2023-04-02T09:20:08.952Z,9.203742
2023-04-02T09:21:08.920Z,9.203819
2023-04-02T09:22:08.996Z,9.203689
2023-04-02T09:23:08.897Z,9.203626
2023-04-02T09:24:08.893Z,9.203773
2023-04-02T09:25:08.954Z,9.203730
2023-04-02T09:26:08.927Z,9.203734
2023-04-02T09:27:08.910Z,9.203599
2023-04-02T09:28:08.868Z,9.203747
2023-04-02T09:29:08.848Z,9.203796
2023-04-02T09:30:08.857Z,9.203817
2023-04-02T09:31:08.936Z,9.203724
2023-04-02T09:32:08.842Z,9.203762
2023-04-02T09:33:08.911Z,9.203764
2023-04-02T09:34:08.841Z,9.203705
2023-04-02T09:35:18.433Z,9.203779
2023-04-02T09:36:10.886Z,9.203596
2023-04-02T09:37:08.815Z,9.203550
2023-04-02T09:38:08.818Z,9.203638
2023-04-02T09:39:08.806Z,9.203662
2023-04-02T09:40:08.803Z,9.203773
2023-04-02T09:41:08.812Z,9.203807
2023-04-02T09:42:09.778Z,9.203694
2023-04-02T09:43:08.784Z,9.203857
2023-04-02T09:44:08.760Z,9.203832
2023-04-02T09:45:08.756Z,9.203779
2023-04-02T09:46:08.801Z,9.203684
2023-04-02T09:47:08.767Z,9.203722
2023-04-02T09:48:08.801Z,9.203811
2023-04-02T09:49:08.774Z,9.203680
2023-04-02T09:50:08.749Z,9.203725
2023-04-02T09:51:08.735Z,9.203831
2023-04-02T09:52:08.897Z,9.203916
2023-04-02T09:53:08.732Z,9.203811
2023-04-02T09:54:08.712Z,9.204166
2023-04-02T09:55:08.715Z,9.203897
2023-04-02T09:56:08.679Z,9.204010
2023-04-02T09:57:08.772Z,9.203774
2023-04-02T09:58:08.696Z,9.203684
2023-04-02T09:59:08.686Z,9.203822
2023-04-02T10:00:12.259Z,9.203816
2023-04-02T10:01:10.714Z,9.203890
2023-04-02T10:02:08.653Z,9.203743
2023-04-02T10:03:08.670Z,9.203541
2023-04-02T10:04:08.768Z,9.203735
2023-04-02T10:05:08.614Z,9.203780
2023-04-02T10:06:08.631Z,9.203797
2023-04-02T10:07:08.624Z,9.203773
2023-04-02T10:08:08.665Z,9.203778
2023-04-02T10:09:08.594Z,9.203551
2023-04-02T10:10:09.622Z,9.203794
2023-04-02T10:11:08.609Z,9.203840
2023-04-02T10:12:08.619Z,9.203869
2023-04-02T10:13:08.574Z,9.203650
2023-04-02T10:14:08.580Z,9.203836
2023-04-02T10:15:08.658Z,9.203959
2023-04-02T10:16:08.631Z,9.203935
2023-04-02T10:17:08.614Z,9.203677
2023-04-02T10:18:08.583Z,9.203686
2023-04-02T10:19:08.560Z,9.203634
2023-04-02T10:20:08.583Z,9.203644
2023-04-02T10:21:08.625Z,9.203776
2023-04-02T10:22:08.547Z,9.203653
2023-04-02T10:23:08.592Z,9.203734
2023-04-02T10:24:08.588Z,9.203522
2023-04-02T10:25:08.576Z,9.203728
2023-04-02T10:26:08.560Z,9.203542
2023-04-02T10:27:08.614Z,9.203854
2023-04-02T10:28:08.693Z,9.203707
2023-04-02T10:29:08.542Z,9.203743
2023-04-02T10:30:08.504Z,9.203746
2023-04-02T10:31:08.529Z,9.203718
2023-04-02T10:32:08.514Z,9.203731
2023-04-02T10:33:08.523Z,9.203596
2023-04-02T10:34:08.463Z,9.203682
2023-04-02T10:35:08.524Z,9.203678
2023-04-02T10:36:08.572Z,9.203715
2023-04-02T10:37:08.452Z,9.203713
2023-04-02T10:38:08.502Z,9.203770
2023-04-02T10:39:08.476Z,9.203734
2023-04-02T10:40:08.433Z,9.203574
2023-04-02T10:41:08.690Z,9.203664
2023-04-02T10:42:08.435Z,9.203713
2023-04-02T10:43:09.241Z,9.203783
2023-04-02T10:44:18.946Z,9.203810
2023-04-02T10:45:10.412Z,9.203700
2023-04-02T10:46:08.497Z,9.203711
2023-04-02T10:47:08.396Z,9.203782
2023-04-02T10:48:08.408Z,9.203765
2023-04-02T10:49:08.407Z,9.203860
2023-04-02T10:50:08.402Z,9.203995
2023-04-02T10:51:08.410Z,9.203782
2023-04-02T10:52:08.361Z,9.203905
2023-04-02T10:53:08.388Z,9.203831
2023-04-02T10:54:08.363Z,9.203572
2023-04-02T10:55:08.379Z,9.203813
2023-04-02T10:56:08.462Z,9.203802
2023-04-02T10:57:08.376Z,9.203739
2023-04-02T10:58:08.335Z,9.203821
2023-04-02T10:59:08.320Z,9.203876
2023-04-02T11:00:08.332Z,9.203860
2023-04-02T11:01:09.336Z,9.203778
2023-04-02T11:02:08.357Z,9.203719
2023-04-02T11:03:08.609Z,9.203753
2023-04-02T11:04:08.352Z,9.203694
2023-04-02T11:05:08.279Z,9.203826
2023-04-02T11:06:08.984Z,9.203856
2023-04-02T11:07:14.424Z,9.203882
2023-04-02T11:08:10.277Z,9.203719
2023-04-02T11:09:08.252Z,9.204050
2023-04-02T11:10:08.290Z,9.203963
2023-04-02T11:11:08.260Z,9.203770
2023-04-02T11:12:08.259Z,9.203850
2023-04-02T11:13:08.408Z,9.203432
2023-04-02T11:14:08.312Z,9.203558
2023-04-02T11:15:08.251Z,9.203693
2023-04-02T11:16:08.256Z,9.203737
2023-04-02T11:17:08.272Z,9.203788
2023-04-02T11:18:08.295Z,9.203695
2023-04-02T11:19:08.191Z,9.203881
2023-04-02T11:20:08.202Z,9.203773
2023-04-02T11:21:08.222Z,9.203642
2023-04-02T11:22:08.207Z,9.203630
2023-04-02T11:23:08.184Z,9.203815
2023-04-02T11:24:08.200Z,9.203820
2023-04-02T11:25:08.175Z,9.203754
2023-04-02T11:26:08.199Z,9.203740
2023-04-02T11:27:08.149Z,9.203652
2023-04-02T11:28:08.153Z,9.203673
2023-04-02T11:29:08.173Z,9.203482
2023-04-02T11:30:08.141Z,9.203795
2023-04-02T11:31:08.226Z,9.203482
2023-04-02T11:32:08.151Z,9.203782
2023-04-02T11:33:08.116Z,9.203731
2023-04-02T11:34:08.138Z,9.203778
2023-04-02T11:35:08.178Z,9.203834
2023-04-02T11:36:08.137Z,9.203809
2023-04-02T11:37:08.137Z,9.203859
2023-04-02T11:38:08.089Z,9.203838
2023-04-02T11:39:16.930Z,9.203862
2023-04-02T11:40:10.226Z,9.203946
2023-04-02T11:41:08.075Z,9.203770
2023-04-02T11:42:08.093Z,9.203745
2023-04-02T11:43:08.153Z,9.203506
2023-04-02T11:44:08.059Z,9.203644
2023-04-02T11:45:08.117Z,9.203826